sensor_id;sensor_type;location;lat;lon;timestamp;P1;durP1;ratioP1;P2;durP2;ratioP2
60492;SDS011;46341;51.290;-2.474;2023-04-08T00:00:21;9.27;;;6.30;;
60492;SDS011;46341;51.290;-2.474;2023-04-08T00:02:47;11.13;;;6.97;;
60492;SDS011;46341;51.290;-2.474;2023-04-08T00:05:14;9.70;;;6.78;;
60492;SDS011;46341;51.290;-2.474;2023-04-08T00:07:41;8.20;;;6.57;;
60492;SDS011;46341;51.290;-2.474;2023-04-08T00:10:07;8.25;;;6.00;;
60492;SDS011;46341;51.290;-2.474;2023-04-08T00:12:34;10.43;;;6.57;;
60492;SDS011;46341;51.290;-2.474;2023-04-08T00:15:00;8.48;;;6.47;;
60492;SDS011;46341;51.290;-2.474;2023-04-08T00:17:26;10.48;;;6.28;;
60492;SDS011;46341;51.290;-2.474;2023-04-08T00:19:53;7.82;;;6.07;;
60492;SDS011;46341;51.290;-2.474;2023-04-08T00:22:20;10.37;;;6.17;;
60492;SDS011;46341;51.290;-2.474;2023-04-08T00:24:47;10.45;;;6.03;;
60492;SDS011;46341;51.290;-2.474;2023-04-08T00:27:13;7.28;;;6.05;;
60492;SDS011;46341;51.290;-2.474;2023-04-08T00:29:40;7.53;;;6.03;;
60492;SDS011;46341;51.290;-2.474;2023-04-08T00:32:06;8.63;;;6.18;;
60492;SDS011;46341;51.290;-2.474;2023-04-08T00:34:33;7.00;;;5.15;;
60492;SDS011;46341;51.290;-2.474;2023-04-08T00:36:59;9.32;;;5.68;;
60492;SDS011;46341;51.290;-2.474;2023-04-08T00:39:26;8.73;;;5.30;;
60492;SDS011;46341;51.290;-2.474;2023-04-08T00:41:52;10.32;;;6.05;;
60492;SDS011;46341;51.290;-2.474;2023-04-08T00:44:18;7.82;;;5.60;;
60492;SDS011;46341;51.290;-2.474;2023-04-08T00:46:45;6.90;;;5.13;;
60492;SDS011;46341;51.290;-2.474;2023-04-08T00:49:12;7.60;;;5.10;;
60492;SDS011;46341;51.290;-2.474;2023-04-08T00:51:38;8.07;;;5.00;;
60492;SDS011;46341;51.290;-2.474;2023-04-08T00:54:05;9.90;;;5.63;;
60492;SDS011;46341;51.290;-2.474;2023-04-08T00:56:32;10.18;;;5.80;;
60492;SDS011;46341;51.290;-2.474;2023-04-08T00:58:59;8.00;;;5.30;;
60492;SDS011;46341;51.290;-2.474;2023-04-08T01:06:44;6.45;;;5.15;;
60492;SDS011;46341;51.290;-2.474;2023-04-08T01:09:12;9.10;;;5.35;;
60492;SDS011;46341;51.290;-2.474;2023-04-08T01:11:41;7.20;;;5.15;;
60492;SDS011;46341;51.290;-2.474;2023-04-08T01:14:08;7.90;;;5.30;;
60492;SDS011;46341;51.290;-2.474;2023-04-08T01:16:39;7.88;;;5.35;;
60492;SDS011;46341;51.290;-2.474;2023-04-08T01:19:07;5.72;;;4.63;;
60492;SDS011;46341;51.290;-2.474;2023-04-08T01:21:35;6.65;;;5.03;;
60492;SDS011;46341;51.290;-2.474;2023-04-08T01:24:19;7.78;;;4.97;;
60492;SDS011;46341;51.290;-2.474;2023-04-08T01:26:48;7.35;;;4.97;;
60492;SDS011;46341;51.290;-2.474;2023-04-08T01:29:15;7.47;;;4.65;;
60492;SDS011;46341;51.290;-2.474;2023-04-08T01:31:41;7.18;;;5.63;;
60492;SDS011;46341;51.290;-2.474;2023-04-08T01:34:09;7.15;;;4.88;;
60492;SDS011;46341;51.290;-2.474;2023-04-08T01:36:36;10.88;;;5.82;;
60492;SDS011;46341;51.290;-2.474;2023-04-08T01:39:03;7.35;;;5.13;;
60492;SDS011;46341;51.290;-2.474;2023-04-08T01:41:31;8.07;;;5.13;;
60492;SDS011;46341;51.290;-2.474;2023-04-08T01:43:58;8.18;;;5.13;;
60492;SDS011;46341;51.290;-2.474;2023-04-08T01:46:26;8.70;;;5.60;;
60492;SDS011;46341;51.290;-2.474;2023-04-08T01:48:53;8.10;;;5.00;;
60492;SDS011;46341;51.290;-2.474;2023-04-08T01:51:20;8.40;;;5.25;;
60492;SDS011;46341;51.290;-2.474;2023-04-08T01:53:47;7.45;;;5.30;;
60492;SDS011;46341;51.290;-2.474;2023-04-08T01:56:13;7.88;;;5.20;;
60492;SDS011;46341;51.290;-2.474;2023-04-08T01:58:41;10.32;;;6.15;;
60492;SDS011;46341;51.290;-2.474;2023-04-08T02:01:09;6.88;;;5.50;;
60492;SDS011;46341;51.290;-2.474;2023-04-08T02:03:37;7.28;;;5.53;;
60492;SDS011;46341;51.290;-2.474;2023-04-08T02:06:04;8.55;;;5.57;;
60492;SDS011;46341;51.290;-2.474;2023-04-08T02:08:32;7.65;;;5.05;;
60492;SDS011;46341;51.290;-2.474;2023-04-08T02:10:58;8.10;;;5.40;;
60492;SDS011;46341;51.290;-2.474;2023-04-08T02:13:24;7.63;;;5.18;;
60492;SDS011;46341;51.290;-2.474;2023-04-08T02:15:51;8.15;;;5.20;;
60492;SDS011;46341;51.290;-2.474;2023-04-08T02:20:47;6.35;;;4.80;;
60492;SDS011;46341;51.290;-2.474;2023-04-08T02:23:18;8.98;;;5.53;;
60492;SDS011;46341;51.290;-2.474;2023-04-08T02:25:45;7.03;;;5.10;;
60492;SDS011;46341;51.290;-2.474;2023-04-08T02:28:12;7.78;;;5.40;;
60492;SDS011;46341;51.290;-2.474;2023-04-08T02:30:41;6.30;;;4.97;;
60492;SDS011;46341;51.290;-2.474;2023-04-08T02:33:08;9.00;;;5.50;;
60492;SDS011;46341;51.290;-2.474;2023-04-08T02:35:36;7.22;;;5.38;;
60492;SDS011;46341;51.290;-2.474;2023-04-08T02:38:04;5.88;;;5.30;;
60492;SDS011;46341;51.290;-2.474;2023-04-08T02:40:31;6.82;;;4.90;;
60492;SDS011;46341;51.290;-2.474;2023-04-08T02:42:57;8.43;;;5.10;;
60492;SDS011;46341;51.290;-2.474;2023-04-08T02:45:25;9.13;;;5.30;;
60492;SDS011;46341;51.290;-2.474;2023-04-08T02:47:52;8.05;;;5.32;;
60492;SDS011;46341;51.290;-2.474;2023-04-08T02:50:19;7.15;;;4.80;;
60492;SDS011;46341;51.290;-2.474;2023-04-08T02:52:45;6.97;;;4.47;;
60492;SDS011;46341;51.290;-2.474;2023-04-08T02:55:11;6.85;;;4.78;;
60492;SDS011;46341;51.290;-2.474;2023-04-08T02:57:39;6.10;;;4.60;;
60492;SDS011;46341;51.290;-2.474;2023-04-08T03:00:06;8.07;;;4.82;;
60492;SDS011;46341;51.290;-2.474;2023-04-08T03:02:32;6.82;;;4.68;;
60492;SDS011;46341;51.290;-2.474;2023-04-08T03:04:59;7.63;;;4.40;;
60492;SDS011;46341;51.290;-2.474;2023-04-08T03:07:25;5.82;;;4.38;;
60492;SDS011;46341;51.290;-2.474;2023-04-08T03:09:52;6.70;;;4.57;;
60492;SDS011;46341;51.290;-2.474;2023-04-08T03:12:20;7.82;;;4.57;;
60492;SDS011;46341;51.290;-2.474;2023-04-08T03:14:47;10.65;;;5.57;;
60492;SDS011;46341;51.290;-2.474;2023-04-08T03:17:14;7.03;;;4.43;;
60492;SDS011;46341;51.290;-2.474;2023-04-08T03:19:40;7.20;;;4.68;;
60492;SDS011;46341;51.290;-2.474;2023-04-08T03:22:06;6.57;;;4.43;;
60492;SDS011;46341;51.290;-2.474;2023-04-08T03:27:01;8.65;;;4.40;;
60492;SDS011;46341;51.290;-2.474;2023-04-08T03:29:28;9.25;;;5.53;;
60492;SDS011;46341;51.290;-2.474;2023-04-08T03:31:54;6.82;;;4.63;;
60492;SDS011;46341;51.290;-2.474;2023-04-08T03:34:21;6.97;;;5.25;;
60492;SDS011;46341;51.290;-2.474;2023-04-08T03:36:47;8.70;;;4.85;;
60492;SDS011;46341;51.290;-2.474;2023-04-08T03:39:14;7.20;;;4.32;;
60492;SDS011;46341;51.290;-2.474;2023-04-08T03:41:40;9.02;;;5.72;;
60492;SDS011;46341;51.290;-2.474;2023-04-08T03:44:06;8.15;;;5.47;;
60492;SDS011;46341;51.290;-2.474;2023-04-08T03:46:33;10.02;;;5.00;;
60492;SDS011;46341;51.290;-2.474;2023-04-08T03:48:59;9.43;;;5.20;;
60492;SDS011;46341;51.290;-2.474;2023-04-08T03:51:25;7.30;;;4.63;;
60492;SDS011;46341;51.290;-2.474;2023-04-08T03:53:53;5.53;;;4.28;;
60492;SDS011;46341;51.290;-2.474;2023-04-08T03:56:20;6.05;;;4.93;;
60492;SDS011;46341;51.290;-2.474;2023-04-08T03:58:47;6.43;;;4.50;;
60492;SDS011;46341;51.290;-2.474;2023-04-08T04:01:13;6.05;;;4.40;;
60492;SDS011;46341;51.290;-2.474;2023-04-08T04:03:40;5.68;;;4.68;;
60492;SDS011;46341;51.290;-2.474;2023-04-08T04:06:06;5.80;;;4.43;;
60492;SDS011;46341;51.290;-2.474;2023-04-08T04:08:33;5.30;;;4.25;;
60492;SDS011;46341;51.290;-2.474;2023-04-08T04:10:59;8.75;;;4.90;;
60492;SDS011;46341;51.290;-2.474;2023-04-08T04:13:25;5.75;;;4.50;;
60492;SDS011;46341;51.290;-2.474;2023-04-08T04:15:52;7.60;;;4.70;;
60492;SDS011;46341;51.290;-2.474;2023-04-08T04:18:18;4.45;;;4.05;;
60492;SDS011;46341;51.290;-2.474;2023-04-08T04:20:45;7.40;;;4.68;;
60492;SDS011;46341;51.290;-2.474;2023-04-08T04:23:11;5.45;;;3.95;;
60492;SDS011;46341;51.290;-2.474;2023-04-08T04:25:40;6.55;;;4.43;;
60492;SDS011;46341;51.290;-2.474;2023-04-08T04:28:06;6.85;;;4.13;;
60492;SDS011;46341;51.290;-2.474;2023-04-08T04:30:38;6.15;;;4.10;;
60492;SDS011;46341;51.290;-2.474;2023-04-08T04:33:05;6.28;;;3.75;;
60492;SDS011;46341;51.290;-2.474;2023-04-08T04:35:31;6.07;;;4.25;;
60492;SDS011;46341;51.290;-2.474;2023-04-08T04:37:58;5.72;;;4.20;;
60492;SDS011;46341;51.290;-2.474;2023-04-08T04:40:24;4.80;;;4.30;;
60492;SDS011;46341;51.290;-2.474;2023-04-08T04:42:51;6.57;;;4.07;;
60492;SDS011;46341;51.290;-2.474;2023-04-08T04:45:17;7.40;;;4.40;;
60492;SDS011;46341;51.290;-2.474;2023-04-08T04:47:43;6.45;;;4.30;;
60492;SDS011;46341;51.290;-2.474;2023-04-08T04:50:10;6.30;;;4.00;;
60492;SDS011;46341;51.290;-2.474;2023-04-08T04:52:36;6.15;;;4.13;;
60492;SDS011;46341;51.290;-2.474;2023-04-08T04:55:03;7.43;;;4.10;;
60492;SDS011;46341;51.290;-2.474;2023-04-08T04:57:29;6.50;;;4.20;;
60492;SDS011;46341;51.290;-2.474;2023-04-08T04:59:56;7.20;;;3.90;;
60492;SDS011;46341;51.290;-2.474;2023-04-08T05:02:22;6.57;;;4.00;;
60492;SDS011;46341;51.290;-2.474;2023-04-08T05:04:49;6.38;;;3.92;;
60492;SDS011;46341;51.290;-2.474;2023-04-08T05:07:18;5.70;;;3.95;;
60492;SDS011;46341;51.290;-2.474;2023-04-08T05:09:45;6.28;;;4.20;;
60492;SDS011;46341;51.290;-2.474;2023-04-08T05:12:11;5.30;;;4.00;;
60492;SDS011;46341;51.290;-2.474;2023-04-08T05:14:38;7.25;;;4.15;;
60492;SDS011;46341;51.290;-2.474;2023-04-08T05:17:04;6.22;;;4.15;;
60492;SDS011;46341;51.290;-2.474;2023-04-08T05:19:31;7.07;;;3.90;;
60492;SDS011;46341;51.290;-2.474;2023-04-08T05:21:57;5.60;;;4.20;;
60492;SDS011;46341;51.290;-2.474;2023-04-08T05:24:24;6.05;;;3.88;;
60492;SDS011;46341;51.290;-2.474;2023-04-08T05:26:50;6.05;;;4.10;;
60492;SDS011;46341;51.290;-2.474;2023-04-08T05:29:18;5.28;;;4.10;;
60492;SDS011;46341;51.290;-2.474;2023-04-08T05:31:46;7.10;;;3.58;;
60492;SDS011;46341;51.290;-2.474;2023-04-08T05:34:13;9.40;;;4.10;;
60492;SDS011;46341;51.290;-2.474;2023-04-08T05:36:41;6.95;;;4.15;;
60492;SDS011;46341;51.290;-2.474;2023-04-08T05:39:07;6.35;;;4.05;;
60492;SDS011;46341;51.290;-2.474;2023-04-08T05:41:33;8.85;;;4.32;;
60492;SDS011;46341;51.290;-2.474;2023-04-08T05:44:00;7.35;;;3.95;;
60492;SDS011;46341;51.290;-2.474;2023-04-08T05:46:26;5.00;;;3.70;;
60492;SDS011;46341;51.290;-2.474;2023-04-08T05:48:53;5.63;;;3.83;;
60492;SDS011;46341;51.290;-2.474;2023-04-08T05:51:19;6.32;;;3.92;;
60492;SDS011;46341;51.290;-2.474;2023-04-08T05:53:46;5.82;;;3.67;;
60492;SDS011;46341;51.290;-2.474;2023-04-08T05:56:12;5.30;;;3.75;;
60492;SDS011;46341;51.290;-2.474;2023-04-08T05:58:39;7.57;;;4.18;;
60492;SDS011;46341;51.290;-2.474;2023-04-08T06:01:05;7.00;;;4.32;;
60492;SDS011;46341;51.290;-2.474;2023-04-08T06:03:32;8.65;;;4.45;;
60492;SDS011;46341;51.290;-2.474;2023-04-08T06:05:59;6.28;;;4.13;;
60492;SDS011;46341;51.290;-2.474;2023-04-08T06:08:25;5.95;;;3.72;;
60492;SDS011;46341;51.290;-2.474;2023-04-08T06:10:51;5.85;;;4.07;;
60492;SDS011;46341;51.290;-2.474;2023-04-08T06:13:18;7.95;;;4.60;;
60492;SDS011;46341;51.290;-2.474;2023-04-08T06:15:46;4.88;;;4.10;;
60492;SDS011;46341;51.290;-2.474;2023-04-08T06:18:15;6.10;;;4.00;;
60492;SDS011;46341;51.290;-2.474;2023-04-08T06:20:41;7.43;;;4.07;;
60492;SDS011;46341;51.290;-2.474;2023-04-08T06:23:07;5.80;;;3.53;;
60492;SDS011;46341;51.290;-2.474;2023-04-08T06:25:34;6.28;;;3.45;;
60492;SDS011;46341;51.290;-2.474;2023-04-08T06:28:00;6.18;;;4.10;;
60492;SDS011;46341;51.290;-2.474;2023-04-08T06:30:26;8.02;;;4.38;;
60492;SDS011;46341;51.290;-2.474;2023-04-08T06:32:53;6.47;;;3.65;;
60492;SDS011;46341;51.290;-2.474;2023-04-08T06:35:19;5.82;;;3.80;;
60492;SDS011;46341;51.290;-2.474;2023-04-08T06:37:46;7.47;;;4.40;;
60492;SDS011;46341;51.290;-2.474;2023-04-08T06:40:12;8.10;;;5.25;;
60492;SDS011;46341;51.290;-2.474;2023-04-08T06:42:38;6.75;;;4.85;;
60492;SDS011;46341;51.290;-2.474;2023-04-08T06:45:08;5.80;;;4.07;;
60492;SDS011;46341;51.290;-2.474;2023-04-08T06:47:34;7.93;;;4.28;;
60492;SDS011;46341;51.290;-2.474;2023-04-08T06:50:01;7.22;;;4.85;;
60492;SDS011;46341;51.290;-2.474;2023-04-08T06:52:28;7.82;;;5.55;;
60492;SDS011;46341;51.290;-2.474;2023-04-08T06:54:54;7.65;;;5.63;;
60492;SDS011;46341;51.290;-2.474;2023-04-08T06:57:21;7.93;;;5.10;;
60492;SDS011;46341;51.290;-2.474;2023-04-08T06:59:47;7.38;;;4.97;;
60492;SDS011;46341;51.290;-2.474;2023-04-08T07:02:13;7.78;;;5.90;;
60492;SDS011;46341;51.290;-2.474;2023-04-08T07:04:41;7.25;;;5.68;;
60492;SDS011;46341;51.290;-2.474;2023-04-08T07:07:08;8.93;;;6.15;;
60492;SDS011;46341;51.290;-2.474;2023-04-08T07:09:34;8.93;;;5.97;;
60492;SDS011;46341;51.290;-2.474;2023-04-08T07:12:02;9.25;;;6.50;;
60492;SDS011;46341;51.290;-2.474;2023-04-08T07:14:29;8.30;;;6.40;;
60492;SDS011;46341;51.290;-2.474;2023-04-08T07:16:55;9.98;;;6.82;;
60492;SDS011;46341;51.290;-2.474;2023-04-08T07:19:22;9.88;;;7.10;;
60492;SDS011;46341;51.290;-2.474;2023-04-08T07:21:49;9.18;;;8.07;;
60492;SDS011;46341;51.290;-2.474;2023-04-08T07:26:44;9.73;;;7.05;;
60492;SDS011;46341;51.290;-2.474;2023-04-08T07:29:10;8.48;;;7.47;;
60492;SDS011;46341;51.290;-2.474;2023-04-08T07:31:36;9.80;;;6.88;;
60492;SDS011;46341;51.290;-2.474;2023-04-08T07:34:03;10.43;;;7.13;;
60492;SDS011;46341;51.290;-2.474;2023-04-08T07:36:29;9.43;;;6.90;;
60492;SDS011;46341;51.290;-2.474;2023-04-08T07:38:56;8.73;;;6.80;;
60492;SDS011;46341;51.290;-2.474;2023-04-08T07:41:22;9.35;;;6.75;;
60492;SDS011;46341;51.290;-2.474;2023-04-08T07:43:48;8.70;;;6.55;;
60492;SDS011;46341;51.290;-2.474;2023-04-08T07:46:15;8.80;;;6.68;;
60492;SDS011;46341;51.290;-2.474;2023-04-08T07:48:41;7.75;;;6.95;;
60492;SDS011;46341;51.290;-2.474;2023-04-08T07:51:08;7.55;;;6.40;;
60492;SDS011;46341;51.290;-2.474;2023-04-08T07:53:37;8.82;;;7.07;;
60492;SDS011;46341;51.290;-2.474;2023-04-08T07:56:09;9.90;;;7.57;;
60492;SDS011;46341;51.290;-2.474;2023-04-08T07:58:35;10.50;;;7.13;;
60492;SDS011;46341;51.290;-2.474;2023-04-08T08:01:02;7.40;;;6.35;;
60492;SDS011;46341;51.290;-2.474;2023-04-08T08:03:28;8.30;;;6.05;;
60492;SDS011;46341;51.290;-2.474;2023-04-08T08:05:58;7.13;;;5.90;;
60492;SDS011;46341;51.290;-2.474;2023-04-08T08:08:25;6.93;;;5.70;;
60492;SDS011;46341;51.290;-2.474;2023-04-08T08:10:52;8.65;;;6.22;;
60492;SDS011;46341;51.290;-2.474;2023-04-08T08:13:18;8.45;;;6.38;;
60492;SDS011;46341;51.290;-2.474;2023-04-08T08:15:50;7.28;;;6.28;;
60492;SDS011;46341;51.290;-2.474;2023-04-08T08:18:17;6.05;;;5.20;;
60492;SDS011;46341;51.290;-2.474;2023-04-08T08:20:44;5.95;;;5.18;;
60492;SDS011;46341;51.290;-2.474;2023-04-08T08:23:10;6.38;;;5.30;;
60492;SDS011;46341;51.290;-2.474;2023-04-08T08:25:37;5.35;;;4.80;;
60492;SDS011;46341;51.290;-2.474;2023-04-08T08:28:03;4.45;;;4.03;;
60492;SDS011;46341;51.290;-2.474;2023-04-08T08:30:30;4.72;;;3.47;;
60492;SDS011;46341;51.290;-2.474;2023-04-08T08:32:59;3.55;;;3.00;;
60492;SDS011;46341;51.290;-2.474;2023-04-08T08:35:26;4.13;;;3.30;;
60492;SDS011;46341;51.290;-2.474;2023-04-08T08:37:52;3.67;;;3.17;;
60492;SDS011;46341;51.290;-2.474;2023-04-08T08:40:18;5.90;;;3.08;;
60492;SDS011;46341;51.290;-2.474;2023-04-08T08:42:51;4.88;;;3.25;;
60492;SDS011;46341;51.290;-2.474;2023-04-08T08:45:20;4.88;;;3.20;;
60492;SDS011;46341;51.290;-2.474;2023-04-08T08:47:46;2.80;;;2.53;;
60492;SDS011;46341;51.290;-2.474;2023-04-08T08:50:16;5.78;;;2.90;;
60492;SDS011;46341;51.290;-2.474;2023-04-08T08:52:49;4.07;;;2.75;;
60492;SDS011;46341;51.290;-2.474;2023-04-08T08:55:18;2.50;;;2.30;;
60492;SDS011;46341;51.290;-2.474;2023-04-08T08:58:05;2.75;;;2.50;;
60492;SDS011;46341;51.290;-2.474;2023-04-08T09:00:36;4.32;;;2.60;;
60492;SDS011;46341;51.290;-2.474;2023-04-08T09:03:15;3.67;;;2.50;;
60492;SDS011;46341;51.290;-2.474;2023-04-08T09:05:49;4.55;;;2.83;;
60492;SDS011;46341;51.290;-2.474;2023-04-08T09:08:26;4.47;;;2.83;;
60492;SDS011;46341;51.290;-2.474;2023-04-08T09:10:53;3.33;;;2.55;;
60492;SDS011;46341;51.290;-2.474;2023-04-08T09:13:20;3.63;;;2.78;;
60492;SDS011;46341;51.290;-2.474;2023-04-08T09:18:22;3.97;;;2.97;;
60492;SDS011;46341;51.290;-2.474;2023-04-08T09:20:52;3.38;;;2.85;;
60492;SDS011;46341;51.290;-2.474;2023-04-08T09:23:18;3.60;;;3.08;;
60492;SDS011;46341;51.290;-2.474;2023-04-08T09:25:45;4.90;;;3.10;;
60492;SDS011;46341;51.290;-2.474;2023-04-08T09:28:18;3.67;;;2.65;;
60492;SDS011;46341;51.290;-2.474;2023-04-08T09:30:46;4.28;;;2.38;;
60492;SDS011;46341;51.290;-2.474;2023-04-08T09:33:13;2.90;;;2.38;;
60492;SDS011;46341;51.290;-2.474;2023-04-08T09:35:39;3.35;;;2.80;;
60492;SDS011;46341;51.290;-2.474;2023-04-08T09:38:05;3.00;;;2.70;;
60492;SDS011;46341;51.290;-2.474;2023-04-08T09:40:32;6.35;;;2.75;;
60492;SDS011;46341;51.290;-2.474;2023-04-08T09:43:02;5.47;;;2.97;;
60492;SDS011;46341;51.290;-2.474;2023-04-08T09:45:29;4.22;;;2.70;;
60492;SDS011;46341;51.290;-2.474;2023-04-08T09:48:02;3.20;;;2.63;;
60492;SDS011;46341;51.290;-2.474;2023-04-08T09:50:30;3.33;;;2.63;;
60492;SDS011;46341;51.290;-2.474;2023-04-08T09:53:01;2.30;;;2.10;;
60492;SDS011;46341;51.290;-2.474;2023-04-08T09:55:33;2.88;;;2.45;;
60492;SDS011;46341;51.290;-2.474;2023-04-08T09:58:02;3.22;;;2.03;;
60492;SDS011;46341;51.290;-2.474;2023-04-08T10:00:39;4.47;;;2.75;;
60492;SDS011;46341;51.290;-2.474;2023-04-08T10:05:54;2.97;;;2.47;;
60492;SDS011;46341;51.290;-2.474;2023-04-08T10:08:24;4.53;;;2.60;;
60492;SDS011;46341;51.290;-2.474;2023-04-08T10:10:51;5.07;;;2.33;;
60492;SDS011;46341;51.290;-2.474;2023-04-08T10:13:18;3.55;;;2.30;;
60492;SDS011;46341;51.290;-2.474;2023-04-08T10:15:44;2.95;;;2.22;;
60492;SDS011;46341;51.290;-2.474;2023-04-08T10:20:40;3.80;;;2.35;;
60492;SDS011;46341;51.290;-2.474;2023-04-08T10:25:36;2.47;;;2.22;;
60492;SDS011;46341;51.290;-2.474;2023-04-08T10:33:24;3.80;;;2.72;;
60492;SDS011;46341;51.290;-2.474;2023-04-08T10:35:58;3.47;;;2.55;;
60492;SDS011;46341;51.290;-2.474;2023-04-08T10:38:25;3.22;;;2.70;;
60492;SDS011;46341;51.290;-2.474;2023-04-08T10:40:51;3.53;;;3.20;;
60492;SDS011;46341;51.290;-2.474;2023-04-08T10:43:19;3.20;;;3.00;;
60492;SDS011;46341;51.290;-2.474;2023-04-08T10:45:45;2.85;;;2.63;;
60492;SDS011;46341;51.290;-2.474;2023-04-08T10:48:20;3.10;;;2.80;;
60492;SDS011;46341;51.290;-2.474;2023-04-08T10:50:51;3.47;;;3.25;;
60492;SDS011;46341;51.290;-2.474;2023-04-08T10:53:25;3.33;;;2.53;;
60492;SDS011;46341;51.290;-2.474;2023-04-08T10:55:53;3.40;;;2.55;;
60492;SDS011;46341;51.290;-2.474;2023-04-08T10:58:20;2.92;;;2.05;;
60492;SDS011;46341;51.290;-2.474;2023-04-08T11:00:46;3.00;;;2.22;;
60492;SDS011;46341;51.290;-2.474;2023-04-08T11:03:13;3.05;;;2.60;;
60492;SDS011;46341;51.290;-2.474;2023-04-08T11:05:41;2.10;;;1.95;;
60492;SDS011;46341;51.290;-2.474;2023-04-08T11:08:07;2.88;;;2.00;;
60492;SDS011;46341;51.290;-2.474;2023-04-08T11:10:37;3.10;;;2.05;;
60492;SDS011;46341;51.290;-2.474;2023-04-08T11:13:07;2.60;;;2.20;;
60492;SDS011;46341;51.290;-2.474;2023-04-08T11:15:34;2.67;;;2.20;;
60492;SDS011;46341;51.290;-2.474;2023-04-08T11:18:02;2.40;;;2.00;;
60492;SDS011;46341;51.290;-2.474;2023-04-08T11:20:28;2.90;;;2.58;;
60492;SDS011;46341;51.290;-2.474;2023-04-08T11:22:55;3.10;;;2.80;;
60492;SDS011;46341;51.290;-2.474;2023-04-08T11:25:22;5.10;;;2.88;;
60492;SDS011;46341;51.290;-2.474;2023-04-08T11:27:49;3.72;;;2.72;;
60492;SDS011;46341;51.290;-2.474;2023-04-08T11:30:15;3.67;;;2.47;;
60492;SDS011;46341;51.290;-2.474;2023-04-08T11:32:41;3.42;;;2.70;;
60492;SDS011;46341;51.290;-2.474;2023-04-08T11:35:08;3.05;;;2.40;;
60492;SDS011;46341;51.290;-2.474;2023-04-08T11:37:35;2.35;;;2.15;;
60492;SDS011;46341;51.290;-2.474;2023-04-08T11:40:05;2.20;;;2.00;;
60492;SDS011;46341;51.290;-2.474;2023-04-08T11:42:31;3.92;;;2.40;;
60492;SDS011;46341;51.290;-2.474;2023-04-08T11:44:58;3.15;;;2.17;;
60492;SDS011;46341;51.290;-2.474;2023-04-08T11:47:31;3.15;;;2.35;;
60492;SDS011;46341;51.290;-2.474;2023-04-08T11:49:58;2.45;;;2.17;;
60492;SDS011;46341;51.290;-2.474;2023-04-08T11:54:52;3.00;;;2.42;;
60492;SDS011;46341;51.290;-2.474;2023-04-08T11:57:29;4.28;;;2.47;;
60492;SDS011;46341;51.290;-2.474;2023-04-08T11:59:55;2.90;;;2.63;;
60492;SDS011;46341;51.290;-2.474;2023-04-08T12:02:21;3.35;;;2.35;;
60492;SDS011;46341;51.290;-2.474;2023-04-08T12:07:14;2.95;;;2.35;;
60492;SDS011;46341;51.290;-2.474;2023-04-08T12:09:41;2.55;;;1.98;;
60492;SDS011;46341;51.290;-2.474;2023-04-08T12:12:07;2.63;;;2.40;;
60492;SDS011;46341;51.290;-2.474;2023-04-08T12:14:33;4.65;;;3.15;;
60492;SDS011;46341;51.290;-2.474;2023-04-08T12:17:00;2.92;;;2.67;;
60492;SDS011;46341;51.290;-2.474;2023-04-08T12:19:26;5.77;;;3.00;;
60492;SDS011;46341;51.290;-2.474;2023-04-08T12:21:53;3.47;;;2.87;;
60492;SDS011;46341;51.290;-2.474;2023-04-08T12:24:19;4.03;;;2.70;;
60492;SDS011;46341;51.290;-2.474;2023-04-08T12:26:46;2.97;;;2.70;;
60492;SDS011;46341;51.290;-2.474;2023-04-08T12:29:12;2.97;;;2.67;;
60492;SDS011;46341;51.290;-2.474;2023-04-08T12:31:39;2.77;;;2.37;;
60492;SDS011;46341;51.290;-2.474;2023-04-08T12:34:05;3.40;;;2.60;;
60492;SDS011;46341;51.290;-2.474;2023-04-08T12:36:32;4.13;;;2.78;;
60492;SDS011;46341;51.290;-2.474;2023-04-08T12:38:58;2.80;;;2.60;;
60492;SDS011;46341;51.290;-2.474;2023-04-08T12:41:25;2.60;;;2.40;;
60492;SDS011;46341;51.290;-2.474;2023-04-08T12:43:51;3.15;;;2.67;;
60492;SDS011;46341;51.290;-2.474;2023-04-08T12:46:17;4.07;;;2.40;;
60492;SDS011;46341;51.290;-2.474;2023-04-08T12:51:12;2.70;;;2.10;;
60492;SDS011;46341;51.290;-2.474;2023-04-08T12:56:05;2.40;;;2.20;;
60492;SDS011;46341;51.290;-2.474;2023-04-08T12:58:32;4.63;;;2.10;;
60492;SDS011;46341;51.290;-2.474;2023-04-08T13:00:58;2.67;;;2.10;;
60492;SDS011;46341;51.290;-2.474;2023-04-08T13:03:24;3.20;;;2.22;;
60492;SDS011;46341;51.290;-2.474;2023-04-08T13:05:53;3.15;;;2.05;;
60492;SDS011;46341;51.290;-2.474;2023-04-08T13:08:19;2.90;;;2.10;;
60492;SDS011;46341;51.290;-2.474;2023-04-08T13:10:46;2.50;;;2.20;;
60492;SDS011;46341;51.290;-2.474;2023-04-08T13:13:12;2.25;;;1.92;;
60492;SDS011;46341;51.290;-2.474;2023-04-08T13:15:39;3.00;;;2.20;;
60492;SDS011;46341;51.290;-2.474;2023-04-08T13:18:05;2.55;;;2.25;;
60492;SDS011;46341;51.290;-2.474;2023-04-08T13:20:32;2.95;;;2.50;;
60492;SDS011;46341;51.290;-2.474;2023-04-08T13:22:58;3.50;;;2.72;;
60492;SDS011;46341;51.290;-2.474;2023-04-08T13:25:26;3.83;;;3.13;;
60492;SDS011;46341;51.290;-2.474;2023-04-08T13:27:52;3.25;;;2.70;;
60492;SDS011;46341;51.290;-2.474;2023-04-08T13:30:19;2.45;;;2.25;;
60492;SDS011;46341;51.290;-2.474;2023-04-08T13:35:11;2.50;;;1.80;;
60492;SDS011;46341;51.290;-2.474;2023-04-08T13:37:38;2.55;;;1.80;;
60492;SDS011;46341;51.290;-2.474;2023-04-08T13:40:04;1.95;;;1.85;;
60492;SDS011;46341;51.290;-2.474;2023-04-08T13:42:31;2.35;;;2.15;;
60492;SDS011;46341;51.290;-2.474;2023-04-08T13:44:58;2.33;;;2.15;;
60492;SDS011;46341;51.290;-2.474;2023-04-08T13:47:24;2.88;;;2.67;;
60492;SDS011;46341;51.290;-2.474;2023-04-08T13:49:52;3.70;;;2.78;;
60492;SDS011;46341;51.290;-2.474;2023-04-08T13:54:45;2.97;;;2.78;;
60492;SDS011;46341;51.290;-2.474;2023-04-08T13:57:11;3.00;;;2.70;;
60492;SDS011;46341;51.290;-2.474;2023-04-08T13:59:38;3.13;;;2.87;;
60492;SDS011;46341;51.290;-2.474;2023-04-08T14:02:04;3.50;;;2.40;;
60492;SDS011;46341;51.290;-2.474;2023-04-08T14:04:31;3.35;;;3.00;;
60492;SDS011;46341;51.290;-2.474;2023-04-08T14:06:58;2.40;;;2.20;;
60492;SDS011;46341;51.290;-2.474;2023-04-08T14:09:24;2.83;;;2.55;;
60492;SDS011;46341;51.290;-2.474;2023-04-08T14:11:51;2.75;;;2.40;;
60492;SDS011;46341;51.290;-2.474;2023-04-08T14:14:17;4.07;;;2.15;;
60492;SDS011;46341;51.290;-2.474;2023-04-08T14:16:43;2.45;;;1.90;;
60492;SDS011;46341;51.290;-2.474;2023-04-08T14:19:10;3.03;;;2.22;;
60492;SDS011;46341;51.290;-2.474;2023-04-08T14:21:37;2.65;;;2.45;;
60492;SDS011;46341;51.290;-2.474;2023-04-08T14:24:03;3.63;;;2.55;;
60492;SDS011;46341;51.290;-2.474;2023-04-08T14:26:30;3.97;;;1.98;;
60492;SDS011;46341;51.290;-2.474;2023-04-08T14:29:01;3.92;;;2.30;;
60492;SDS011;46341;51.290;-2.474;2023-04-08T14:31:28;5.10;;;2.60;;
60492;SDS011;46341;51.290;-2.474;2023-04-08T14:33:54;2.83;;;1.85;;
60492;SDS011;46341;51.290;-2.474;2023-04-08T14:36:20;2.25;;;2.05;;
60492;SDS011;46341;51.290;-2.474;2023-04-08T14:38:49;2.58;;;2.17;;
60492;SDS011;46341;51.290;-2.474;2023-04-08T14:41:16;2.47;;;1.92;;
60492;SDS011;46341;51.290;-2.474;2023-04-08T14:43:42;3.45;;;2.38;;
60492;SDS011;46341;51.290;-2.474;2023-04-08T14:46:09;2.75;;;1.90;;
60492;SDS011;46341;51.290;-2.474;2023-04-08T14:48:35;2.25;;;1.48;;
60492;SDS011;46341;51.290;-2.474;2023-04-08T14:51:02;2.35;;;1.70;;
60492;SDS011;46341;51.290;-2.474;2023-04-08T14:53:28;1.52;;;1.23;;
60492;SDS011;46341;51.290;-2.474;2023-04-08T14:55:54;1.95;;;1.42;;
60492;SDS011;46341;51.290;-2.474;2023-04-08T14:58:22;1.60;;;1.50;;
60492;SDS011;46341;51.290;-2.474;2023-04-08T15:00:48;2.63;;;1.50;;
60492;SDS011;46341;51.290;-2.474;2023-04-08T15:05:41;2.00;;;1.48;;
60492;SDS011;46341;51.290;-2.474;2023-04-08T15:08:07;2.30;;;1.45;;
60492;SDS011;46341;51.290;-2.474;2023-04-08T15:10:34;2.20;;;1.65;;
60492;SDS011;46341;51.290;-2.474;2023-04-08T15:13:00;2.90;;;1.95;;
60492;SDS011;46341;51.290;-2.474;2023-04-08T15:15:27;1.80;;;1.70;;
60492;SDS011;46341;51.290;-2.474;2023-04-08T15:17:53;2.85;;;1.92;;